This is the latest recevied weather packets stored in our database for station/object KE5KUL-13. If no packets are shown the sender has not sent any weather packets the latest 1 day(s).
| Time | Temp. | Humidity | Pressure | Rain* | Wind** | Luminosity | Snow |
|---|---|---|---|---|---|---|---|
| 1836274693 | 22.22° C | 55% | 1022.7 hPa | 0 mm | 0.89 m/s, 180° | - | - |
| 1836274093 | 22.22° C | 55% | 1022.4 hPa | 0 mm | 0.89 m/s, 180° | - | - |
| 1778047517 | 6.67° C | 74% | 1013.6 hPa | 0 mm | 0.89 m/s, 113° | - | - |
| 1778046919 | 7.22° C | 74% | 1013.5 hPa | 0 mm | 0.45 m/s, 135° | - | - |
| 1778046319 | 7.22° C | 73% | 1013.2 hPa | 0 mm | 0.89 m/s, 113° | - | - |
| 1778045719 | 7.22° C | 72% | 1013 hPa | 0 mm | 0.45 m/s, 135° | - | - |
| 1778045117 | 7.22° C | 72% | 1012.8 hPa | 0 mm | 0.89 m/s, 135° | - | - |
| 1778044519 | 7.22° C | 71% | 1012.4 hPa | 0 mm | 0.89 m/s, 135° | - | - |
| 1778043919 | 7.78° C | 70% | 1012.9 hPa | 0 mm | 0.89 m/s, 158° | - | - |
| 1778043439 | 7.78° C | 69% | 1012.6 hPa | 0 mm | 0.89 m/s, 135° | - | - |
| 1778043018 | 7.78° C | 69% | 1012.2 hPa | 0 mm | 1.34 m/s, 113° | - | - |
| 1778042417 | 8.33° C | 68% | 1012.2 hPa | 0 mm | 1.34 m/s, 135° | - | - |
| 1778041818 | 8.33° C | 67% | 1012.4 hPa | 0 mm | 1.34 m/s, 113° | - | - |
| 1778041218 | 8.89° C | 65% | 1012.1 hPa | 0 mm | 1.34 m/s, 113° | - | - |
| 1778040618 | 8.89° C | 64% | 1012 hPa | 0 mm | 0.89 m/s, 135° | - | - |
| 1778040017 | 9.44° C | 63% | 1011.6 hPa | 0 mm | 1.34 m/s, 113° | - | - |
| 1778039417 | 9.44° C | 62% | 1011.5 hPa | 0 mm | 0.89 m/s, 113° | - | - |
| 1778038818 | 10° C | 61% | 1011.6 hPa | 0 mm | 0.45 m/s, 135° | - | - |
| 1778038217 | 10° C | 61% | 1011.5 hPa | 0 mm | 0.89 m/s, 135° | - | - |
| 1778037617 | 10.56° C | 60% | 1011.4 hPa | 0 mm | 1.34 m/s, 135° | - | - |
| 1778037017 | 10.56° C | 58% | 1011.3 hPa | 0 mm | 1.34 m/s, 135° | - | - |
| 1778036418 | 11.11° C | 57% | 1011.1 hPa | 0 mm | 0.45 m/s, 135° | - | - |
| 1778035818 | 11.11° C | 56% | 1010.9 hPa | 0 mm | 0.89 m/s, 113° | - | - |
| 1778035217 | 11.67° C | 55% | 1011 hPa | 0 mm | 1.79 m/s, 135° | - | - |
| 1778034617 | 11.67° C | 55% | 1010.6 hPa | 0 mm | 0.45 m/s, 113° | - | - |
* Rain latest hour (hover to see other rain measurements)
** Current wind speed in m/s (hover to see current wind gust speed)